createdAt,value
2018-09-21T00:00:51.577Z,100204.13
2018-09-21T00:03:22.989Z,100200.91
2018-09-21T00:05:53.853Z,100198.72
2018-09-21T00:08:24.873Z,100199.34
2018-09-21T00:10:56.003Z,100198.00
2018-09-21T00:13:26.828Z,100199.14
2018-09-21T00:15:57.618Z,100197.94
2018-09-21T00:18:28.745Z,100185.92
2018-09-21T00:20:59.472Z,100189.42
2018-09-21T00:23:30.911Z,100182.81
2018-09-21T00:26:01.680Z,100186.28
2018-09-21T00:28:32.697Z,100181.60
2018-09-21T00:31:03.469Z,100183.47
2018-09-21T00:33:35.213Z,100180.77
2018-09-21T00:36:05.989Z,100163.63
2018-09-21T00:38:37.042Z,100179.73
2018-09-21T00:41:07.682Z,100179.84
2018-09-21T00:43:39.015Z,100181.48
2018-09-21T00:46:09.673Z,100184.11
2018-09-21T00:48:40.637Z,100177.77
2018-09-21T00:51:11.782Z,100180.77
2018-09-21T00:53:42.763Z,100173.54
2018-09-21T00:56:13.569Z,100172.11
2018-09-21T00:58:44.746Z,100171.47
2018-09-21T01:01:15.557Z,100173.25
2018-09-21T01:03:46.425Z,100166.73
2018-09-21T01:06:17.828Z,100163.63
2018-09-21T01:08:48.924Z,100169.50
2018-09-21T01:11:19.715Z,100161.34
2018-09-21T01:13:50.660Z,100166.92
2018-09-21T01:16:21.413Z,100162.27
2018-09-21T01:18:53.048Z,100161.34
2018-09-21T01:21:23.645Z,100164.45
2018-09-21T01:23:54.655Z,100164.23
2018-09-21T01:26:25.493Z,100165.77
2018-09-21T01:29:11.651Z,100161.20
2018-09-21T01:31:41.929Z,100159.98
2018-09-21T01:34:12.132Z,100159.67
2018-09-21T01:36:41.985Z,100159.05
2018-09-21T01:39:12.669Z,100155.13
2018-09-21T01:41:42.603Z,100157.49
2018-09-21T01:44:12.340Z,100152.45
2018-09-21T01:46:42.221Z,100150.77
2018-09-21T01:49:12.546Z,100148.33
2018-09-21T01:51:42.305Z,100151.78
2018-09-21T01:54:12.253Z,100153.63
2018-09-21T01:56:42.144Z,100151.16
2018-09-21T01:59:11.986Z,100157.47
2018-09-21T02:01:42.797Z,100150.13
2018-09-21T02:04:12.556Z,100153.94
2018-09-21T02:06:42.419Z,100151.25
2018-09-21T02:09:12.238Z,100154.25
2018-09-21T02:11:42.013Z,100150.48
2018-09-21T02:14:12.752Z,100151.12
2018-09-21T02:16:43.669Z,100144.02
2018-09-21T02:19:14.824Z,100153.25
2018-09-21T02:21:45.621Z,100155.52
2018-09-21T02:24:16.539Z,100141.59
2018-09-21T02:26:47.415Z,100145.06
2018-09-21T02:29:18.843Z,100146.93
2018-09-21T02:31:49.889Z,100143.81
2018-09-21T02:34:20.216Z,100142.38
2018-09-21T02:36:50.854Z,100142.53
2018-09-21T02:39:21.734Z,100149.55
2018-09-21T02:41:52.528Z,100142.66
2018-09-21T02:44:23.986Z,100145.13
2018-09-21T02:46:54.706Z,100141.02
2018-09-21T02:49:25.600Z,100144.33
2018-09-21T02:51:56.769Z,100138.02
2018-09-21T02:54:27.690Z,100139.22
2018-09-21T02:56:58.464Z,100146.80
2018-09-21T02:59:29.881Z,100145.46
2018-09-21T03:02:04.267Z,100140.34
2018-09-21T03:04:34.259Z,100139.13
2018-09-21T03:07:04.474Z,100137.03
2018-09-21T03:09:34.342Z,100129.44
2018-09-21T03:12:04.907Z,100117.46
2018-09-21T03:14:35.702Z,100138.42
2018-09-21T03:17:06.630Z,100135.34
2018-09-21T03:19:37.824Z,100124.02
2018-09-21T03:22:08.857Z,100136.39
2018-09-21T03:24:39.620Z,100126.53
2018-09-21T03:27:10.489Z,100126.53
2018-09-21T03:29:40.941Z,100135.45
2018-09-21T03:32:11.502Z,100129.31
2018-09-21T03:34:41.496Z,100127.97
2018-09-21T03:37:13.152Z,100127.16
2018-09-21T03:39:43.615Z,100125.58
2018-09-21T03:42:14.529Z,100117.67
2018-09-21T03:44:45.774Z,100121.09
2018-09-21T03:47:16.644Z,100118.38
2018-09-21T03:49:47.477Z,100122.87
2018-09-21T03:52:18.796Z,100110.03
2018-09-21T03:54:49.548Z,100111.39
2018-09-21T03:57:21.246Z,100108.01
2018-09-21T03:59:51.719Z,100103.09
2018-09-21T04:02:22.636Z,100112.33
2018-09-21T04:04:53.638Z,100105.33
2018-09-21T04:07:24.599Z,100106.25
2018-09-21T04:09:55.501Z,100079.38
2018-09-21T04:12:26.854Z,100098.72
2018-09-21T04:14:57.635Z,100094.60
2018-09-21T04:17:28.548Z,100098.13
2018-09-21T04:19:59.453Z,100085.94
2018-09-21T04:22:30.944Z,100086.97
2018-09-21T04:25:02.190Z,100088.44
2018-09-21T04:27:32.940Z,100087.45
2018-09-21T04:30:03.837Z,100081.64
2018-09-21T04:32:34.772Z,100084.50
2018-09-21T04:35:05.709Z,100085.20
2018-09-21T04:37:36.633Z,100080.31
2018-09-21T04:40:07.552Z,100083.16
2018-09-21T04:42:38.924Z,100076.54
2018-09-21T04:45:09.862Z,100069.28
2018-09-21T04:47:41.052Z,100075.52
2018-09-21T04:50:11.692Z,100071.89
2018-09-21T04:52:42.656Z,100070.41
2018-09-21T04:55:13.483Z,100071.89
2018-09-21T04:57:44.901Z,100069.77
2018-09-21T05:00:15.853Z,100072.13
2018-09-21T05:02:46.801Z,100071.11
2018-09-21T05:05:17.701Z,100069.45
2018-09-21T05:07:48.644Z,100070.66
2018-09-21T05:10:19.489Z,100074.42
2018-09-21T05:12:50.919Z,100067.41
2018-09-21T05:15:21.979Z,100074.66
2018-09-21T05:17:52.723Z,100070.13
2018-09-21T05:20:23.674Z,100058.31
2018-09-21T05:22:54.625Z,100066.66
2018-09-21T05:25:25.460Z,100066.66
2018-09-21T05:27:56.894Z,100059.40
2018-09-21T05:30:27.788Z,100051.36
2018-09-21T05:32:58.716Z,100062.62
2018-09-21T05:35:29.551Z,100054.85
2018-09-21T05:38:00.869Z,100059.88
2018-09-21T05:40:31.697Z,100049.79
2018-09-21T05:43:02.690Z,100069.24
2018-09-21T05:45:33.531Z,100057.73
2018-09-21T05:48:05.046Z,100060.96
2018-09-21T05:50:35.726Z,100059.27
2018-09-21T05:53:06.964Z,100060.97
2018-09-21T05:55:38.537Z,100063.06
2018-09-21T05:58:08.411Z,100059.58
2018-09-21T06:00:38.649Z,100054.77
2018-09-21T06:03:09.691Z,100051.55
2018-09-21T06:05:40.499Z,100052.00
2018-09-21T06:08:11.841Z,100050.87
2018-09-21T06:10:42.630Z,100058.36
2018-09-21T06:13:14.303Z,100055.27
2018-09-21T06:15:44.806Z,100049.00
2018-09-21T06:18:15.721Z,100046.12
2018-09-21T06:20:46.773Z,100042.53
2018-09-21T06:23:17.818Z,100040.77
2018-09-21T06:25:48.710Z,100043.09
2018-09-21T06:28:19.881Z,100054.55
2018-09-21T06:30:51.200Z,100046.18
2018-09-21T06:33:21.802Z,100044.00
2018-09-21T06:35:52.609Z,100035.12
2018-09-21T06:38:23.710Z,100042.12
2018-09-21T06:40:54.525Z,100047.05
2018-09-21T06:43:25.982Z,100042.90
2018-09-21T06:45:55.809Z,100037.22
2018-09-21T06:48:26.636Z,100040.59
2018-09-21T06:50:57.513Z,100042.31
2018-09-21T06:53:28.893Z,100032.23
2018-09-21T06:55:59.925Z,100039.48
2018-09-21T06:58:30.786Z,100031.57
2018-09-21T07:01:02.390Z,100036.69
2018-09-21T07:03:32.692Z,100021.91
2018-09-21T07:06:03.499Z,100025.89
2018-09-21T07:08:34.844Z,100022.36
2018-09-21T07:11:05.625Z,100017.92
2018-09-21T07:13:36.732Z,100024.66
2018-09-21T07:16:07.800Z,100018.93
2018-09-21T07:18:38.828Z,100016.23
2018-09-21T07:21:09.766Z,100014.50
2018-09-21T07:23:40.696Z,100020.36
2018-09-21T07:26:11.235Z,100016.92
2018-09-21T07:28:42.922Z,100016.52
2018-09-21T07:31:13.817Z,100015.10
2018-09-21T07:33:45.026Z,100015.70
2018-09-21T07:36:15.896Z,100013.87
2018-09-21T07:38:46.779Z,100023.20
2018-09-21T07:41:17.634Z,100019.89
2018-09-21T07:43:49.206Z,100013.87
2018-09-21T07:46:19.770Z,100014.59
2018-09-21T07:48:50.684Z,100011.05
2018-09-21T07:51:21.625Z,100006.77
2018-09-21T07:53:52.478Z,100012.12
2018-09-21T07:56:23.728Z,100002.20
2018-09-21T07:58:55.021Z,100005.05
2018-09-21T08:01:25.808Z,100008.20
2018-09-21T08:03:56.686Z,100001.34
2018-09-21T08:06:27.456Z,99998.76
2018-09-21T08:08:58.717Z,99988.19
2018-09-21T08:11:29.537Z,99990.27
2018-09-21T08:14:00.495Z,99996.92
2018-09-21T08:16:31.858Z,99982.47
2018-09-21T08:19:01.862Z,99985.34
2018-09-21T08:21:33.102Z,99984.71
2018-09-21T08:24:04.463Z,99976.56
2018-09-21T08:26:35.382Z,99976.88
2018-09-21T08:29:05.771Z,99982.06
2018-09-21T08:31:36.246Z,99973.08
2018-09-21T08:34:06.984Z,99961.89
2018-09-21T08:36:37.691Z,99959.87
2018-09-21T08:39:11.282Z,99967.78
2018-09-21T08:41:42.066Z,99955.23
2018-09-21T08:44:12.442Z,99950.73
2018-09-21T08:46:42.365Z,99957.87
2018-09-21T08:49:13.127Z,99952.07
2018-09-21T08:51:43.624Z,99961.20
2018-09-21T08:54:14.415Z,99947.82
2018-09-21T08:56:45.786Z,99948.16
2018-09-21T08:59:16.524Z,99937.94
2018-09-21T09:01:47.895Z,99937.27
2018-09-21T09:04:18.652Z,99940.62
2018-09-21T09:06:49.761Z,99937.78
2018-09-21T09:09:20.518Z,99928.90
2018-09-21T09:11:51.588Z,99926.00
2018-09-21T09:14:22.347Z,99928.01
2018-09-21T09:16:53.930Z,99923.70
2018-09-21T09:19:24.716Z,99915.33
2018-09-21T09:21:55.839Z,99919.25
2018-09-21T09:24:27.380Z,99917.75
2018-09-21T09:26:57.400Z,99902.05
2018-09-21T09:29:28.635Z,99895.84
2018-09-21T09:31:59.326Z,99895.42
2018-09-21T09:34:29.750Z,99876.92
2018-09-21T09:37:00.620Z,99878.91
2018-09-21T09:39:31.452Z,99875.45
2018-09-21T09:42:02.812Z,99873.09
2018-09-21T09:44:33.584Z,99871.47
2018-09-21T09:47:04.497Z,99863.06
2018-09-21T09:49:35.740Z,99854.38
2018-09-21T09:52:06.606Z,99851.42
2018-09-21T09:54:37.398Z,99847.38
2018-09-21T09:57:08.825Z,99843.88
2018-09-21T09:59:39.651Z,99836.02
2018-09-21T10:02:10.882Z,99834.94
2018-09-21T10:04:41.625Z,99836.30
2018-09-21T10:07:12.500Z,99830.34
2018-09-21T10:09:43.340Z,99829.56
2018-09-21T10:12:14.802Z,99818.41
2018-09-21T10:14:45.537Z,99817.31
2018-09-21T10:17:16.490Z,99811.34
2018-09-21T10:19:47.531Z,99803.73
2018-09-21T10:22:18.629Z,99801.83
2018-09-21T10:24:49.422Z,99797.47
2018-09-21T10:27:21.026Z,99798.01
2018-09-21T10:29:52.206Z,99788.18
2018-09-21T10:32:22.861Z,99785.47
2018-09-21T10:34:54.312Z,99782.75
2018-09-21T10:37:25.054Z,99776.47
2018-09-21T10:39:55.670Z,99771.77
2018-09-21T10:42:26.651Z,99766.84
2018-09-21T10:44:57.240Z,99764.59
2018-09-21T10:47:28.880Z,99765.13
2018-09-21T10:49:59.858Z,99764.53
2018-09-21T10:52:30.872Z,99755.48
2018-09-21T10:55:01.725Z,99747.73
2018-09-21T10:57:32.745Z,99758.66
2018-09-21T11:00:03.741Z,99746.11
2018-09-21T11:02:34.735Z,99747.59
2018-09-21T11:05:05.913Z,99741.92
2018-09-21T11:07:37.195Z,99744.60
2018-09-21T11:10:08.210Z,99736.02
2018-09-21T11:12:39.203Z,99721.16
2018-09-21T11:15:09.825Z,99724.03
2018-09-21T11:17:40.726Z,99720.11
2018-09-21T11:20:11.959Z,99725.39
2018-09-21T11:22:42.990Z,99721.52
2018-09-21T11:25:13.714Z,99716.16
2018-09-21T11:27:44.692Z,99715.52
2018-09-21T11:30:15.478Z,99707.40
2018-09-21T11:32:46.905Z,99700.95
2018-09-21T11:35:17.695Z,99702.95
2018-09-21T11:37:48.590Z,99692.67
2018-09-21T11:40:19.390Z,99702.23
2018-09-21T11:42:50.913Z,99685.42
2018-09-21T11:45:21.706Z,99684.67
2018-09-21T11:47:52.603Z,99677.52
2018-09-21T11:50:23.446Z,99668.95
2018-09-21T11:52:54.513Z,99665.48
2018-09-21T11:55:26.858Z,99662.68
2018-09-21T11:57:56.718Z,99655.70
2018-09-21T12:00:27.895Z,99650.50
2018-09-21T12:02:59.117Z,99655.19
2018-09-21T12:05:29.874Z,99653.06
2018-09-21T12:08:00.884Z,99642.37
2018-09-21T12:10:31.711Z,99642.37
2018-09-21T12:13:02.850Z,99636.05
2018-09-21T12:15:33.629Z,99630.18
2018-09-21T12:18:04.609Z,99632.44
2018-09-21T12:20:38.788Z,99623.70
2018-09-21T12:23:08.879Z,99623.27
2018-09-21T12:25:38.845Z,99616.89
2018-09-21T12:28:08.681Z,99587.87
2018-09-21T12:30:39.534Z,99612.91
2018-09-21T12:33:10.435Z,99615.13
2018-09-21T12:35:41.863Z,99602.19
2018-09-21T12:38:12.791Z,99602.70
2018-09-21T12:40:44.945Z,99596.98
2018-09-21T12:43:14.718Z,99603.41
2018-09-21T12:45:45.581Z,99600.36
2018-09-21T12:48:16.510Z,99601.79
2018-09-21T12:50:47.606Z,99598.14
2018-09-21T12:53:18.533Z,99595.69
2018-09-21T12:55:49.591Z,99589.78
2018-09-21T12:58:20.444Z,99580.94
2018-09-21T13:00:52.364Z,99572.22
2018-09-21T13:03:24.043Z,99568.65
2018-09-21T13:05:57.836Z,99559.39
2018-09-21T13:08:28.070Z,99555.42
2018-09-21T13:10:58.257Z,99553.49
2018-09-21T13:13:28.226Z,99543.51
2018-09-21T13:15:58.005Z,99537.69
2018-09-21T13:18:28.706Z,99529.70
2018-09-21T13:20:59.457Z,99520.20
2018-09-21T13:23:32.975Z,99526.63
2018-09-21T13:26:02.758Z,99528.56
2018-09-21T13:28:33.028Z,99527.82
2018-09-21T13:31:03.251Z,99521.20
2018-09-21T13:33:33.895Z,99515.91
2018-09-21T13:36:04.762Z,99516.48
2018-09-21T13:38:35.550Z,99514.81
2018-09-21T13:41:06.583Z,99508.20
2018-09-21T13:43:37.418Z,99506.73
2018-09-21T13:46:08.870Z,99497.91
2018-09-21T13:48:39.664Z,99494.70
2018-09-21T13:51:10.654Z,99488.41
2018-09-21T13:53:41.509Z,99497.02
2018-09-21T13:56:12.618Z,99500.16
2018-09-21T13:58:43.466Z,99503.33
2018-09-21T14:01:14.607Z,99500.33
2018-09-21T14:03:45.534Z,99486.05
2018-09-21T14:06:16.527Z,99486.56
2018-09-21T14:08:47.434Z,99486.20
2018-09-21T14:11:18.514Z,99480.44
2018-09-21T14:13:49.457Z,99490.34
2018-09-21T14:16:20.822Z,99484.09
2018-09-21T14:18:51.582Z,99479.86
2018-09-21T14:21:22.613Z,99481.48
2018-09-21T14:23:53.636Z,99479.39
2018-09-21T14:26:24.542Z,99478.13
2018-09-21T14:28:55.571Z,99474.66
2018-09-21T14:31:26.245Z,99469.94
2018-09-21T14:33:56.737Z,99461.28
2018-09-21T14:36:27.726Z,99463.07
2018-09-21T14:38:58.453Z,99465.58
2018-09-21T14:41:29.989Z,99459.97
2018-09-21T14:44:00.637Z,99457.52
2018-09-21T14:46:31.508Z,99452.00
2018-09-21T14:49:02.499Z,99443.28
2018-09-21T14:51:33.549Z,99440.03
2018-09-21T14:54:04.541Z,99444.95
2018-09-21T14:56:35.540Z,99435.52
2018-09-21T14:59:06.893Z,99433.00
2018-09-21T15:01:38.809Z,99424.92
2018-09-21T15:04:10.546Z,99420.33
2018-09-21T15:06:40.565Z,99410.97
2018-09-21T15:09:11.389Z,99415.95
2018-09-21T15:11:42.750Z,99412.20
2018-09-21T15:14:12.731Z,99415.06
2018-09-21T15:16:43.810Z,99408.69
2018-09-21T15:19:14.676Z,99406.45
2018-09-21T15:21:45.602Z,99399.05
2018-09-21T15:24:16.662Z,99394.30
2018-09-21T15:26:47.754Z,99392.58
2018-09-21T15:29:19.049Z,99396.59
2018-09-21T15:31:49.143Z,99393.28
2018-09-21T15:34:19.803Z,99399.96
2018-09-21T15:36:50.956Z,99392.66
2018-09-21T15:39:21.718Z,99389.45
2018-09-21T15:41:52.727Z,99387.72
2018-09-21T15:44:23.549Z,99374.27
2018-09-21T15:46:54.909Z,99373.44
2018-09-21T15:49:25.865Z,99371.98
2018-09-21T15:51:56.838Z,99374.46
2018-09-21T15:54:27.656Z,99368.52
2018-09-21T15:56:59.851Z,99373.14
2018-09-21T15:59:30.317Z,99369.81
2018-09-21T16:02:00.893Z,99359.06
2018-09-21T16:04:31.863Z,99348.62
2018-09-21T16:07:02.699Z,99344.36
2018-09-21T16:09:33.720Z,99338.13
2018-09-21T16:12:04.635Z,99341.64
2018-09-21T16:14:36.077Z,99343.69
2018-09-21T16:17:06.781Z,99354.06
2018-09-21T16:19:37.558Z,99335.73
2018-09-21T16:22:08.626Z,99334.97
2018-09-21T16:24:39.515Z,99333.42
2018-09-21T16:27:11.004Z,99335.91
2018-09-21T16:29:41.679Z,99347.96
2018-09-21T16:32:13.057Z,99338.26
2018-09-21T16:34:43.780Z,99342.17
2018-09-21T16:37:14.625Z,99339.77
2018-09-21T16:39:46.253Z,99338.11
2018-09-21T16:42:16.677Z,99334.30
2018-09-21T16:44:46.498Z,99330.77
2018-09-21T16:47:17.698Z,99331.05
2018-09-21T16:49:48.705Z,99331.89
2018-09-21T16:52:19.641Z,99329.22
2018-09-21T16:54:50.413Z,99325.69
2018-09-21T16:57:21.915Z,99320.85
2018-09-21T16:59:52.640Z,99317.85
2018-09-21T17:02:23.610Z,99314.05
2018-09-21T17:04:54.687Z,99316.76
2018-09-21T17:07:26.123Z,99317.88
2018-09-21T17:09:56.640Z,99315.41
2018-09-21T17:12:27.530Z,99311.89
2018-09-21T17:14:58.835Z,99313.55
2018-09-21T17:17:30.525Z,99308.64
2018-09-21T17:20:00.491Z,99317.88
2018-09-21T17:22:31.494Z,99316.53
2018-09-21T17:25:02.849Z,99318.16
2018-09-21T17:27:33.696Z,99317.36
2018-09-21T17:30:04.873Z,99318.43
2018-09-21T17:32:35.620Z,99310.84
2018-09-21T17:35:06.453Z,99308.89
2018-09-21T17:37:37.594Z,99312.70
2018-09-21T17:40:08.489Z,99306.16
2018-09-21T17:42:39.817Z,99299.64
2018-09-21T17:45:10.629Z,99294.22
2018-09-21T17:47:41.744Z,99298.56
2018-09-21T17:50:12.594Z,99292.28
2018-09-21T17:52:43.603Z,99289.59
2018-09-21T17:55:14.774Z,99293.65
2018-09-21T17:57:45.807Z,99295.27
2018-09-21T18:00:21.843Z,99298.53
2018-09-21T18:02:51.672Z,99297.98
2018-09-21T18:05:21.477Z,99296.08
2018-09-21T18:07:51.436Z,99301.46
2018-09-21T18:10:21.348Z,99296.53
2018-09-21T18:12:51.757Z,99303.83
2018-09-21T18:15:22.670Z,99306.27
2018-09-21T18:17:53.450Z,99302.98
2018-09-21T18:20:24.947Z,99293.75
2018-09-21T18:22:56.061Z,99296.45
2018-09-21T18:25:27.706Z,99299.10
2018-09-21T18:27:57.644Z,99307.52
2018-09-21T18:30:28.670Z,99307.75
2018-09-21T18:32:59.727Z,99312.36
2018-09-21T18:35:30.958Z,99321.27
2018-09-21T18:38:01.844Z,99320.35
2018-09-21T18:40:33.285Z,99329.89
2018-09-21T18:43:04.709Z,99334.95
2018-09-21T18:45:34.889Z,99335.04
2018-09-21T18:48:05.809Z,99338.27
2018-09-21T18:50:36.905Z,99339.07
2018-09-21T18:53:07.858Z,99338.73
2018-09-21T18:55:39.059Z,99323.70
2018-09-21T18:58:09.993Z,99337.31
2018-09-21T19:00:40.328Z,99328.91
2018-09-21T19:03:11.174Z,99329.98
2018-09-21T19:05:42.208Z,99335.65
2018-09-21T19:08:14.993Z,99332.17
2018-09-21T19:10:45.583Z,99337.83
2018-09-21T19:13:15.584Z,99334.88
2018-09-21T19:15:45.510Z,99346.03
2018-09-21T19:18:16.563Z,99338.70
2018-09-21T19:20:48.530Z,99337.28
2018-09-21T19:23:18.924Z,99331.52
2018-09-21T19:25:50.030Z,99326.20
2018-09-21T19:28:21.227Z,99325.68
2018-09-21T19:30:52.224Z,99328.91
2018-09-21T19:33:22.984Z,99324.02
2018-09-21T19:35:54.567Z,99310.72
2018-09-21T19:38:24.728Z,99320.95
2018-09-21T19:40:54.810Z,99319.33
2018-09-21T19:43:26.001Z,99357.16
2018-09-21T19:45:58.096Z,99382.56
2018-09-21T19:48:28.480Z,99480.05
2018-09-21T19:50:59.090Z,99461.84
2018-09-21T19:53:30.139Z,99485.63
2018-09-21T19:56:00.930Z,99549.28
2018-09-21T19:58:32.109Z,99573.48
2018-09-21T20:01:02.832Z,99613.48
2018-09-21T20:03:38.771Z,99656.77
2018-09-21T20:06:10.075Z,99694.31
2018-09-21T20:08:40.869Z,99737.05
2018-09-21T20:11:10.994Z,99715.20
